createdAt,value
2023-03-27T06:47:55.568Z,35.41
2023-03-27T06:50:51.458Z,35.41
2023-03-27T06:53:27.713Z,35.54
2023-03-27T06:55:57.766Z,35.40
2023-03-27T06:58:34.787Z,34.69
2023-03-27T07:01:08.253Z,34.59
2023-03-27T07:03:58.955Z,35.11
2023-03-27T07:06:50.834Z,34.89
2023-03-27T07:09:21.869Z,34.07
2023-03-27T07:12:04.315Z,34.25
2023-03-27T07:14:36.620Z,34.68
2023-03-27T07:17:09.762Z,34.18
2023-03-27T07:19:53.167Z,34.13
2023-03-27T07:22:28.042Z,33.78
2023-03-27T07:25:05.923Z,35.29
2023-03-27T07:27:40.088Z,34.06
2023-03-27T07:30:12.282Z,34.04
2023-03-27T07:32:50.747Z,33.95
2023-03-27T07:35:22.002Z,34.00
2023-03-27T07:38:27.683Z,33.60
2023-03-27T07:41:23.125Z,33.44
2023-03-27T07:44:24.008Z,33.36
2023-03-27T07:47:08.157Z,33.16
2023-03-27T07:49:45.482Z,33.38
2023-03-27T07:52:20.851Z,32.74
2023-03-27T07:55:03.764Z,32.48
2023-03-27T07:57:57.969Z,32.40
2023-03-27T08:00:41.791Z,32.98
2023-03-27T08:03:16.266Z,33.20
2023-03-27T08:05:59.844Z,33.16
2023-03-27T08:08:34.091Z,32.91
2023-03-27T08:11:23.196Z,33.22
2023-03-27T08:13:58.596Z,33.22
2023-03-27T08:16:34.053Z,33.31
2023-03-27T08:19:07.128Z,32.92
2023-03-27T08:21:39.419Z,32.74
2023-03-27T08:24:07.702Z,32.71
2023-03-27T08:26:37.853Z,32.74
2023-03-27T08:29:13.195Z,32.68
2023-03-27T08:31:52.261Z,33.00
2023-03-27T08:34:28.087Z,32.46
2023-03-27T08:36:55.903Z,32.21
2023-03-27T08:39:33.022Z,32.45
2023-03-27T08:42:13.699Z,31.91
2023-03-27T08:44:56.283Z,32.09
2023-03-27T08:47:47.716Z,32.46
2023-03-27T08:50:44.205Z,32.15
2023-03-27T08:53:48.964Z,31.72
2023-03-27T08:56:31.948Z,31.43
2023-03-27T08:59:05.830Z,31.77
2023-03-27T09:01:58.050Z,31.37
2023-03-27T09:04:34.253Z,30.51
2023-03-27T09:07:28.664Z,30.01
2023-03-27T09:10:33.620Z,29.58
2023-03-27T09:13:38.728Z,29.05
2023-03-27T09:16:32.454Z,29.81
2023-03-27T09:19:14.212Z,30.06
2023-03-27T09:21:51.527Z,30.13
2023-03-27T09:24:46.835Z,30.83
2023-03-27T09:27:46.442Z,30.46
2023-03-27T09:30:47.573Z,30.56
2023-03-27T09:33:33.720Z,30.39
2023-03-27T09:36:12.575Z,30.45
2023-03-27T09:38:51.452Z,30.48
2023-03-27T09:41:42.628Z,31.17
2023-03-27T09:44:28.226Z,31.32
2023-03-27T09:47:11.119Z,31.17
2023-03-27T09:49:52.964Z,31.01
2023-03-27T09:52:46.207Z,30.77
2023-03-27T09:55:35.533Z,30.82
2023-03-27T09:58:22.456Z,30.75
2023-03-27T10:01:09.919Z,30.67
2023-03-27T10:03:42.127Z,31.36
2023-03-27T10:06:17.236Z,30.74
2023-03-27T10:09:02.390Z,30.79
2023-03-27T10:11:42.092Z,30.62
2023-03-27T10:14:26.359Z,30.94
2023-03-27T10:17:01.720Z,30.66
2023-03-27T10:19:38.737Z,30.47
2023-03-27T10:22:32.124Z,30.78
2023-03-27T10:25:18.214Z,30.67
2023-03-27T10:28:18.665Z,30.25
2023-03-27T10:31:36.322Z,30.10
2023-03-27T10:34:38.394Z,30.31
2023-03-27T10:37:34.161Z,29.79
2023-03-27T10:40:44.305Z,30.00
2023-03-27T10:43:36.068Z,30.07
2023-03-27T10:46:17.213Z,30.30
2023-03-27T10:49:17.500Z,30.39
2023-03-27T10:52:32.468Z,30.35
2023-03-27T10:55:41.549Z,30.56
2023-03-27T10:58:36.704Z,30.77
2023-03-27T11:01:29.196Z,30.66
2023-03-27T11:04:19.209Z,30.57
2023-03-27T11:06:59.860Z,30.77
2023-03-27T11:09:53.668Z,30.45
2023-03-27T11:12:30.561Z,30.71
2023-03-27T11:15:19.835Z,30.52
2023-03-27T11:18:28.535Z,30.57
2023-03-27T11:21:20.793Z,30.73
2023-03-27T11:24:09.697Z,30.83
2023-03-27T11:27:05.281Z,30.31
2023-03-27T11:29:46.748Z,30.44
2023-03-27T11:32:43.915Z,30.56
2023-03-27T11:35:28.949Z,30.57
2023-03-27T11:38:23.188Z,30.71
2023-03-27T11:40:56.763Z,30.39
2023-03-27T11:43:40.450Z,30.77
2023-03-27T11:46:51.784Z,30.56
2023-03-27T11:49:55.311Z,30.35
2023-03-27T11:52:50.366Z,30.78
2023-03-27T11:55:42.825Z,30.75
2023-03-27T11:58:19.718Z,30.73
2023-03-27T12:01:32.311Z,30.73
2023-03-27T12:04:21.869Z,31.16
2023-03-27T12:07:47.699Z,31.45
2023-03-27T12:10:43.846Z,31.29
2023-03-27T12:13:58.160Z,31.31
2023-03-27T12:16:56.300Z,31.39
2023-03-27T12:19:49.733Z,31.50
2023-03-27T12:22:52.079Z,31.27
2023-03-27T12:25:54.646Z,31.60
2023-03-27T12:29:24.504Z,31.11
2023-03-27T12:32:25.696Z,31.08
2023-03-27T12:34:59.071Z,30.85
2023-03-27T12:38:00.065Z,30.88
2023-03-27T12:40:33.424Z,30.63
2023-03-27T12:43:32.646Z,30.76
2023-03-27T12:46:25.681Z,30.76
2023-03-27T12:49:00.427Z,31.19
2023-03-27T12:51:51.256Z,31.35
2023-03-27T12:55:31.021Z,31.34
2023-03-27T12:58:14.779Z,31.45
2023-03-27T13:01:00.867Z,31.28
2023-03-27T13:04:26.466Z,31.49
2023-03-27T13:07:13.480Z,31.93
2023-03-27T13:10:26.741Z,31.71
2023-03-27T13:13:20.699Z,31.83
2023-03-27T13:16:19.703Z,31.62
2023-03-27T13:19:13.255Z,31.97
2023-03-27T13:22:29.970Z,31.99
2023-03-27T13:25:12.761Z,31.47
2023-03-27T13:28:11.157Z,31.19
2023-03-27T13:30:58.086Z,31.87
2023-03-27T13:34:08.628Z,31.56
2023-03-27T13:37:15.282Z,31.92
2023-03-27T13:40:08.681Z,31.83
2023-03-27T13:42:47.874Z,31.09
2023-03-27T13:45:32.296Z,27.18
2023-03-27T13:49:07.304Z,28.74
2023-03-27T13:52:10.854Z,26.72
2023-03-27T13:55:16.904Z,29.11
2023-03-27T13:58:32.718Z,28.67
2023-03-27T14:01:18.721Z,28.86
2023-03-27T14:04:18.359Z,26.33
2023-03-27T14:07:11.399Z,25.04
2023-03-27T14:10:03.813Z,23.48
2023-03-27T14:13:10.268Z,25.42
2023-03-27T14:15:59.701Z,24.65
2023-03-27T14:18:38.776Z,24.92
2023-03-27T14:21:31.435Z,25.87
2023-03-27T14:24:23.056Z,24.23
2023-03-27T14:27:04.186Z,23.87
2023-03-27T14:29:32.711Z,25.63
2023-03-27T14:32:09.037Z,24.59
2023-03-27T14:34:53.374Z,23.96
2023-03-27T14:37:39.374Z,24.06
2023-03-27T14:40:45.472Z,23.68
2023-03-27T14:43:21.274Z,25.33
2023-03-27T14:45:59.880Z,23.75
2023-03-27T14:48:44.351Z,24.73
2023-03-27T14:51:37.655Z,21.53
2023-03-27T14:54:27.027Z,22.08
2023-03-27T14:57:09.451Z,20.74
2023-03-27T14:59:49.922Z,20.05
2023-03-27T15:02:29.012Z,21.57
2023-03-27T15:05:27.931Z,21.62
2023-03-27T15:08:21.042Z,22.25
2023-03-27T15:11:17.766Z,21.87
2023-03-27T15:14:14.103Z,22.06
2023-03-27T15:16:50.621Z,22.30
2023-03-27T15:19:26.277Z,22.91
2023-03-27T15:22:07.589Z,22.80
2023-03-27T15:24:50.971Z,23.01
2023-03-27T15:27:30.221Z,22.28
2023-03-27T15:30:09.134Z,23.10
2023-03-27T15:32:50.940Z,23.09
2023-03-27T15:35:31.617Z,23.41
2023-03-27T15:38:06.436Z,23.54
2023-03-27T15:40:43.044Z,24.04
2023-03-27T15:43:14.035Z,24.16
2023-03-27T15:46:02.765Z,24.31
2023-03-27T15:48:37.820Z,24.65
2023-03-27T15:51:14.850Z,24.39
2023-03-27T15:54:08.722Z,24.74
2023-03-27T15:56:44.997Z,24.94
2023-03-27T15:59:22.484Z,25.08
2023-03-27T16:02:01.332Z,24.85
2023-03-27T16:04:58.594Z,25.34
2023-03-27T16:07:39.271Z,25.42
2023-03-27T16:10:36.504Z,25.34
2023-03-27T16:13:31.761Z,25.60
2023-03-27T16:16:19.066Z,25.35
2023-03-27T16:18:54.023Z,25.80
2023-03-27T16:21:37.319Z,25.98
2023-03-27T16:24:11.024Z,25.86
2023-03-27T16:26:49.515Z,25.94
2023-03-27T16:29:25.579Z,26.13
2023-03-27T16:32:03.754Z,25.84
2023-03-27T16:34:40.687Z,26.40
2023-03-27T16:37:17.669Z,26.20
2023-03-27T16:39:56.375Z,25.96
2023-03-27T16:42:38.353Z,26.30
2023-03-27T16:45:16.852Z,26.42
2023-03-27T16:47:53.077Z,26.02
2023-03-27T16:50:29.118Z,26.37
2023-03-27T16:53:08.741Z,26.56
2023-03-27T16:55:51.045Z,26.33
2023-03-27T16:58:19.932Z,26.28
2023-03-27T17:00:50.863Z,26.44
2023-03-27T17:03:31.232Z,26.42
2023-03-27T17:06:09.533Z,26.45
2023-03-27T17:08:55.626Z,26.52
2023-03-27T17:11:31.568Z,26.68
2023-03-27T17:14:08.587Z,26.42
2023-03-27T17:16:37.399Z,26.48
2023-03-27T17:19:11.687Z,26.68
2023-03-27T17:22:01.121Z,26.76
2023-03-27T17:24:45.678Z,26.70
2023-03-27T17:27:33.104Z,26.63
2023-03-27T17:30:10.192Z,26.61
2023-03-27T17:32:42.912Z,26.75
2023-03-27T17:35:24.098Z,26.97
2023-03-27T17:37:56.574Z,26.89
2023-03-27T17:40:24.370Z,26.84
2023-03-27T17:42:53.022Z,27.13
2023-03-27T17:45:23.950Z,26.97
2023-03-27T17:47:54.940Z,27.04
2023-03-27T17:50:26.249Z,26.90
2023-03-27T17:52:56.790Z,27.04
2023-03-27T17:55:27.317Z,27.10
2023-03-27T17:58:08.829Z,26.92
2023-03-27T18:00:45.168Z,27.03
2023-03-27T18:03:21.544Z,27.40
2023-03-27T18:05:56.639Z,27.11
2023-03-27T18:08:27.376Z,27.36
2023-03-27T18:11:00.950Z,27.53
2023-03-27T18:13:33.069Z,27.42
2023-03-27T18:16:10.725Z,27.71
2023-03-27T18:18:48.943Z,27.38
2023-03-27T18:21:25.124Z,27.51
2023-03-27T18:24:01.356Z,27.47
2023-03-27T18:26:37.203Z,27.86
2023-03-27T18:29:10.960Z,27.69
2023-03-27T18:31:47.299Z,27.94
2023-03-27T18:34:16.529Z,27.62
2023-03-27T18:36:51.808Z,27.34
2023-03-27T18:39:24.671Z,27.92
2023-03-27T18:42:01.575Z,27.35
2023-03-27T18:44:32.859Z,27.29
2023-03-27T18:47:05.684Z,27.41
2023-03-27T18:49:39.869Z,27.44
2023-03-27T18:52:12.134Z,27.56
2023-03-27T18:54:53.305Z,27.81
2023-03-27T18:57:27.888Z,27.76
2023-03-27T19:00:09.283Z,27.76
2023-03-27T19:02:45.694Z,27.76
2023-03-27T19:05:19.310Z,27.82
2023-03-27T19:07:57.671Z,27.83
2023-03-27T19:10:34.973Z,27.91
2023-03-27T19:13:28.546Z,27.72
2023-03-27T19:16:26.137Z,27.93
2023-03-27T19:19:00.867Z,27.99
2023-03-27T19:21:52.268Z,28.02
2023-03-27T19:24:37.148Z,27.99
2023-03-27T19:27:08.505Z,28.01
2023-03-27T19:29:54.790Z,27.73
2023-03-27T19:32:29.427Z,27.63
2023-03-27T19:35:05.462Z,27.58
2023-03-27T19:37:37.301Z,27.64
2023-03-27T19:40:14.394Z,27.38
2023-03-27T19:42:45.015Z,27.54
2023-03-27T19:45:16.414Z,27.51
2023-03-27T19:47:55.719Z,27.52
2023-03-27T19:50:34.645Z,26.99
2023-03-27T19:53:18.496Z,26.83
2023-03-27T19:55:49.353Z,26.73
2023-03-27T19:58:26.684Z,26.72
2023-03-27T20:01:04.762Z,27.03
2023-03-27T20:03:39.976Z,26.97
2023-03-27T20:06:18.573Z,26.91
2023-03-27T20:08:52.020Z,27.10
2023-03-27T20:11:33.589Z,27.00
2023-03-27T20:14:09.485Z,26.83
2023-03-27T20:16:43.556Z,27.05
2023-03-27T20:19:21.975Z,26.97
2023-03-27T20:22:00.761Z,26.74
2023-03-27T20:24:43.765Z,26.86
2023-03-27T20:27:20.108Z,26.51
2023-03-27T20:29:54.636Z,26.63
2023-03-27T20:32:27.556Z,26.12
2023-03-27T20:35:23.012Z,25.67
2023-03-27T20:38:08.714Z,26.24
2023-03-27T20:43:22.840Z,26.26
2023-03-27T20:45:55.083Z,26.08
2023-03-27T20:48:41.760Z,26.24
2023-03-27T20:51:24.964Z,26.20
2023-03-27T20:54:00.131Z,26.29
2023-03-27T20:56:34.384Z,26.04
2023-03-27T20:59:11.310Z,25.98
2023-03-27T21:01:50.725Z,26.16
2023-03-27T21:04:28.265Z,26.00
2023-03-27T21:07:05.109Z,25.92
2023-03-27T21:09:38.609Z,25.94
2023-03-27T21:12:12.946Z,25.41
2023-03-27T21:14:44.131Z,25.57
2023-03-27T21:17:20.861Z,25.29
2023-03-27T21:19:54.055Z,25.40
2023-03-27T21:22:32.770Z,25.26
2023-03-27T21:25:11.645Z,25.51
2023-03-27T21:27:51.506Z,25.21
2023-03-27T21:30:46.952Z,25.46
2023-03-27T21:33:21.830Z,25.56
2023-03-27T21:35:54.933Z,25.58
2023-03-27T21:38:28.631Z,25.70
2023-03-27T21:41:03.302Z,25.71
2023-03-27T21:43:36.684Z,25.65
2023-03-27T21:46:07.205Z,25.66
2023-03-27T21:48:48.556Z,25.48
2023-03-27T21:51:27.295Z,25.05
2023-03-27T21:54:02.550Z,24.91
2023-03-27T21:56:44.526Z,24.90
2023-03-27T21:59:18.322Z,24.45
2023-03-27T22:01:54.190Z,24.58
2023-03-27T22:04:32.916Z,24.45
2023-03-27T22:07:08.449Z,24.61
2023-03-27T22:09:45.460Z,24.50
2023-03-27T22:12:16.793Z,24.49
2023-03-27T22:14:55.492Z,24.59
2023-03-27T22:17:34.257Z,24.57
2023-03-27T22:20:13.373Z,24.76
2023-03-27T22:22:43.674Z,24.49
2023-03-27T22:25:19.889Z,24.85
2023-03-27T22:27:55.052Z,24.76
2023-03-27T22:30:32.487Z,24.94
2023-03-27T22:33:10.176Z,25.00
2023-03-27T22:35:48.011Z,25.04
2023-03-27T22:38:20.702Z,24.98
2023-03-27T22:40:56.060Z,25.08
2023-03-27T22:43:32.456Z,25.10
2023-03-27T22:46:29.539Z,25.28
2023-03-27T22:49:11.045Z,25.20
2023-03-27T22:51:44.400Z,25.35
2023-03-27T22:54:27.983Z,25.39
2023-03-27T22:57:02.657Z,25.50
2023-03-27T22:59:36.497Z,25.45
2023-03-27T23:02:12.841Z,25.49
2023-03-27T23:04:54.566Z,25.56
2023-03-27T23:07:32.677Z,25.61
2023-03-27T23:10:15.081Z,25.29
2023-03-27T23:12:51.418Z,25.60
2023-03-27T23:15:35.853Z,25.65
2023-03-27T23:18:13.397Z,25.54
2023-03-27T23:20:44.887Z,25.71
2023-03-27T23:23:19.346Z,25.85
2023-03-27T23:25:57.935Z,25.67
2023-03-27T23:28:42.904Z,25.73
2023-03-27T23:31:25.628Z,25.63
2023-03-27T23:33:59.894Z,25.64
2023-03-27T23:36:38.636Z,25.87
2023-03-27T23:39:17.583Z,25.75
2023-03-27T23:41:56.943Z,25.71
2023-03-27T23:44:30.648Z,25.60
2023-03-27T23:47:06.464Z,25.75
2023-03-27T23:49:45.776Z,25.86
2023-03-27T23:52:19.777Z,25.93
2023-03-27T23:55:04.852Z,25.64
2023-03-27T23:57:43.422Z,25.91
